createdAt,value
2023-04-29T00:00:41.911Z,9.93
2023-04-29T00:03:08.694Z,9.73
2023-04-29T00:05:36.072Z,11.93
2023-04-29T00:08:03.938Z,13.82
2023-04-29T00:10:30.567Z,12.02
2023-04-29T00:12:57.190Z,12.75
2023-04-29T00:15:23.841Z,9.13
2023-04-29T00:17:50.846Z,12.90
2023-04-29T00:20:18.069Z,10.23
2023-04-29T00:22:45.234Z,9.27
2023-04-29T00:25:12.318Z,8.43
2023-04-29T00:27:39.561Z,12.65
2023-04-29T00:30:08.350Z,11.70
2023-04-29T00:32:35.121Z,11.30
2023-04-29T00:35:02.586Z,11.25
2023-04-29T00:37:29.225Z,10.73
2023-04-29T00:39:55.799Z,11.30
2023-04-29T00:42:22.631Z,11.73
2023-04-29T00:44:49.231Z,13.88
2023-04-29T00:47:17.452Z,11.00
2023-04-29T00:49:44.292Z,11.40
2023-04-29T00:52:11.838Z,11.38
2023-04-29T00:54:38.813Z,10.68
2023-04-29T00:57:06.444Z,11.80
2023-04-29T00:59:33.523Z,14.80
2023-04-29T01:02:01.339Z,9.63
2023-04-29T01:04:28.165Z,14.10
2023-04-29T01:07:17.041Z,13.80
2023-04-29T01:10:10.223Z,11.32
2023-04-29T01:12:36.920Z,8.80
2023-04-29T01:15:11.199Z,8.50
2023-04-29T01:17:43.829Z,9.70
2023-04-29T01:20:10.715Z,10.85
2023-04-29T01:22:37.675Z,14.88
2023-04-29T01:25:05.953Z,9.88
2023-04-29T01:27:42.730Z,10.85
2023-04-29T01:30:25.172Z,12.82
2023-04-29T01:33:12.707Z,10.05
2023-04-29T01:36:05.446Z,11.20
2023-04-29T01:39:00.609Z,9.35
2023-04-29T01:41:46.126Z,8.73
2023-04-29T01:44:19.527Z,9.23
2023-04-29T01:46:52.555Z,11.88
2023-04-29T01:49:24.936Z,12.70
2023-04-29T01:51:51.598Z,11.18
2023-04-29T01:54:18.408Z,9.70
2023-04-29T01:56:45.166Z,11.35
2023-04-29T01:59:12.046Z,10.82
2023-04-29T02:01:38.637Z,9.18
2023-04-29T02:04:05.520Z,20.73
2023-04-29T02:06:35.055Z,7.90
2023-04-29T02:09:01.629Z,10.20
2023-04-29T02:11:28.234Z,13.02
2023-04-29T02:13:54.887Z,10.20
2023-04-29T02:16:21.746Z,11.20
2023-04-29T02:18:48.377Z,14.02
2023-04-29T02:21:14.988Z,9.70
2023-04-29T02:23:41.618Z,11.52
2023-04-29T02:26:09.784Z,10.57
2023-04-29T02:28:36.840Z,8.80
2023-04-29T02:31:03.487Z,12.10
2023-04-29T02:33:30.090Z,10.25
2023-04-29T02:35:56.695Z,9.98
2023-04-29T02:38:23.273Z,11.48
2023-04-29T02:40:50.393Z,8.82
2023-04-29T02:43:17.138Z,9.38
2023-04-29T02:45:44.711Z,9.45
2023-04-29T02:48:11.565Z,10.07
2023-04-29T02:50:38.336Z,10.95
2023-04-29T02:53:04.943Z,10.20
2023-04-29T02:55:31.596Z,10.48
2023-04-29T02:57:58.197Z,11.88
2023-04-29T03:00:24.820Z,10.07
2023-04-29T03:02:51.758Z,12.38
2023-04-29T03:05:19.225Z,10.85
2023-04-29T03:07:45.814Z,14.55
2023-04-29T03:10:12.633Z,13.40
2023-04-29T03:12:39.591Z,9.00
2023-04-29T03:15:10.759Z,12.27
2023-04-29T03:17:37.639Z,12.13
2023-04-29T03:20:05.339Z,8.88
2023-04-29T03:22:31.971Z,10.15
2023-04-29T03:24:58.764Z,14.60
2023-04-29T03:27:25.430Z,8.95
2023-04-29T03:29:52.220Z,11.57
2023-04-29T03:32:19.000Z,10.43
2023-04-29T03:34:45.723Z,10.20
2023-04-29T03:37:12.884Z,11.25
2023-04-29T03:39:39.487Z,11.68
2023-04-29T03:42:06.237Z,10.95
2023-04-29T03:44:32.931Z,10.20
2023-04-29T03:46:59.877Z,10.35
2023-04-29T03:49:26.623Z,10.65
2023-04-29T03:51:53.787Z,10.75
2023-04-29T03:54:20.378Z,10.20
2023-04-29T03:56:47.023Z,10.40
2023-04-29T03:59:13.676Z,13.20
2023-04-29T04:01:40.507Z,12.27
2023-04-29T04:04:07.293Z,10.50
2023-04-29T04:06:34.162Z,11.07
2023-04-29T04:09:01.282Z,10.82
2023-04-29T04:11:27.917Z,13.90
2023-04-29T04:13:54.529Z,8.40
2023-04-29T04:16:21.346Z,10.73
2023-04-29T04:18:48.077Z,12.13
2023-04-29T04:21:14.802Z,10.73
2023-04-29T04:23:41.538Z,9.70
2023-04-29T04:26:08.415Z,11.85
2023-04-29T04:28:34.985Z,13.82
2023-04-29T04:31:01.676Z,11.13
2023-04-29T04:33:28.357Z,10.07
2023-04-29T04:35:55.165Z,11.18
2023-04-29T04:38:23.279Z,10.48
2023-04-29T04:40:49.866Z,8.73
2023-04-29T04:43:17.701Z,9.07
2023-04-29T04:45:44.412Z,13.02
2023-04-29T04:48:11.247Z,10.13
2023-04-29T04:50:37.848Z,12.13
2023-04-29T04:53:04.472Z,9.57
2023-04-29T04:55:33.460Z,12.00
2023-04-29T04:58:00.327Z,10.13
2023-04-29T05:00:26.969Z,12.52
2023-04-29T05:02:53.722Z,10.43
2023-04-29T05:05:20.478Z,8.68
2023-04-29T05:07:47.409Z,10.13
2023-04-29T05:10:14.021Z,10.13
2023-04-29T05:12:40.661Z,10.50
2023-04-29T05:15:08.088Z,7.35
2023-04-29T05:17:36.566Z,9.30
2023-04-29T05:20:03.578Z,10.20
2023-04-29T05:22:30.223Z,11.18
2023-04-29T05:25:02.924Z,10.40
2023-04-29T05:27:29.885Z,9.90
2023-04-29T05:29:57.039Z,13.73
2023-04-29T05:32:23.831Z,11.93
2023-04-29T05:34:50.756Z,9.88
2023-04-29T05:37:17.380Z,11.38
2023-04-29T05:39:44.166Z,13.18
2023-04-29T05:42:10.822Z,12.25
2023-04-29T05:44:37.475Z,13.88
2023-04-29T05:47:04.199Z,12.48
2023-04-29T05:49:30.867Z,13.93
2023-04-29T05:51:57.475Z,12.80
2023-04-29T05:54:24.303Z,13.98
2023-04-29T05:56:51.251Z,15.02
2023-04-29T05:59:18.288Z,12.70
2023-04-29T06:01:45.084Z,13.98
2023-04-29T06:04:12.082Z,17.17
2023-04-29T06:06:39.405Z,11.45
2023-04-29T06:09:13.278Z,14.30
2023-04-29T06:11:44.394Z,12.70
2023-04-29T06:14:11.325Z,14.35
2023-04-29T06:16:38.002Z,11.38
2023-04-29T06:19:04.852Z,12.13
2023-04-29T06:22:00.649Z,10.52
2023-04-29T06:26:54.004Z,12.88
2023-04-29T06:29:20.821Z,11.68
2023-04-29T06:31:47.656Z,9.82
2023-04-29T06:34:14.457Z,13.75
2023-04-29T06:36:41.654Z,11.73
2023-04-29T06:39:08.327Z,14.70
2023-04-29T06:41:36.949Z,10.23
2023-04-29T06:44:03.822Z,10.90
2023-04-29T06:46:30.553Z,10.23
2023-04-29T06:48:57.274Z,10.88
2023-04-29T06:51:25.320Z,9.18
2023-04-29T06:53:52.229Z,11.27
2023-04-29T06:56:19.123Z,10.95
2023-04-29T06:58:45.949Z,11.02
2023-04-29T07:01:12.713Z,8.50
2023-04-29T07:03:39.576Z,9.02
2023-04-29T07:06:06.667Z,10.20
2023-04-29T07:08:33.870Z,10.85
2023-04-29T07:11:00.586Z,11.35
2023-04-29T07:13:27.559Z,13.88
2023-04-29T07:15:54.298Z,12.00
2023-04-29T07:18:20.987Z,8.80
2023-04-29T07:20:48.344Z,11.77
2023-04-29T07:23:15.309Z,10.85
2023-04-29T07:25:42.000Z,12.38
2023-04-29T07:28:09.353Z,12.18
2023-04-29T07:30:36.595Z,12.38
2023-04-29T07:33:04.497Z,12.65
2023-04-29T07:35:31.690Z,11.95
2023-04-29T07:37:58.399Z,12.50
2023-04-29T07:40:25.300Z,11.02
2023-04-29T07:42:51.932Z,9.77
2023-04-29T07:45:18.605Z,10.75
2023-04-29T07:47:46.095Z,11.80
2023-04-29T07:50:12.972Z,11.00
2023-04-29T07:52:39.671Z,10.25
2023-04-29T07:55:07.949Z,11.68
2023-04-29T07:57:34.574Z,16.08
2023-04-29T08:00:01.321Z,11.13
2023-04-29T08:02:28.355Z,9.07
2023-04-29T08:04:56.589Z,10.73
2023-04-29T08:07:23.705Z,10.00
2023-04-29T08:09:50.375Z,11.02
2023-04-29T08:12:17.410Z,11.70
2023-04-29T08:14:44.526Z,8.88
2023-04-29T08:17:11.353Z,10.55
2023-04-29T08:19:37.983Z,9.70
2023-04-29T08:22:05.064Z,9.93
2023-04-29T08:24:33.753Z,10.50
2023-04-29T08:27:00.422Z,9.35
2023-04-29T08:29:27.115Z,12.60
2023-04-29T08:31:54.091Z,10.85
2023-04-29T08:34:20.876Z,53.38
2023-04-29T08:36:47.535Z,33.35
2023-04-29T08:39:14.147Z,28.60
2023-04-29T08:41:40.836Z,16.65
2023-04-29T08:44:07.551Z,12.65
2023-04-29T08:46:34.228Z,18.85
2023-04-29T08:49:03.927Z,15.30
2023-04-29T08:51:32.333Z,11.85
2023-04-29T08:53:59.014Z,12.77
2023-04-29T08:56:28.110Z,11.98
2023-04-29T08:58:55.026Z,11.35
2023-04-29T09:01:22.270Z,11.00
2023-04-29T09:04:31.124Z,11.40
2023-04-29T09:06:58.356Z,11.13
2023-04-29T09:09:25.204Z,11.05
2023-04-29T09:11:53.522Z,9.48
2023-04-29T09:14:20.511Z,11.70
2023-04-29T09:16:47.726Z,13.70
2023-04-29T09:19:35.097Z,12.02
2023-04-29T09:22:05.202Z,10.70
2023-04-29T09:24:32.009Z,9.73
2023-04-29T09:26:59.143Z,10.20
2023-04-29T09:29:25.853Z,11.75
2023-04-29T09:31:53.894Z,9.00
2023-04-29T09:34:41.518Z,10.02
2023-04-29T09:37:24.970Z,12.90
2023-04-29T09:39:51.935Z,10.40
2023-04-29T09:42:18.508Z,12.57
2023-04-29T09:44:45.381Z,11.77
2023-04-29T09:47:13.326Z,12.68
2023-04-29T09:49:45.573Z,15.45
2023-04-29T09:52:15.112Z,19.60
2023-04-29T09:54:42.724Z,10.70
2023-04-29T09:57:10.775Z,12.05
2023-04-29T09:59:39.185Z,10.05
2023-04-29T10:02:16.313Z,14.98
2023-04-29T10:04:45.331Z,20.13
2023-04-29T10:07:16.863Z,9.82
2023-04-29T10:09:45.465Z,10.82
2023-04-29T10:12:12.163Z,12.95
2023-04-29T10:14:45.456Z,9.07
2023-04-29T10:17:18.954Z,13.65
2023-04-29T10:20:08.353Z,10.73
2023-04-29T10:22:57.968Z,12.60
2023-04-29T10:25:25.002Z,11.30
2023-04-29T10:27:54.640Z,11.80
2023-04-29T10:30:21.935Z,13.50
2023-04-29T10:32:51.697Z,14.02
2023-04-29T10:35:20.264Z,11.70
2023-04-29T10:37:48.111Z,10.77
2023-04-29T10:40:16.612Z,13.27
2023-04-29T10:42:50.436Z,12.27
2023-04-29T10:45:38.551Z,14.07
2023-04-29T10:48:06.316Z,13.95
2023-04-29T10:50:33.880Z,15.63
2023-04-29T10:53:04.190Z,15.20
2023-04-29T10:55:31.638Z,13.77
2023-04-29T10:57:58.363Z,13.93
2023-04-29T11:00:29.145Z,14.18
2023-04-29T11:03:00.283Z,13.18
2023-04-29T11:05:34.224Z,20.45
2023-04-29T11:08:16.352Z,14.43
2023-04-29T11:10:43.560Z,18.42
2023-04-29T11:13:27.020Z,17.92
2023-04-29T11:16:09.577Z,14.45
2023-04-29T11:18:37.392Z,12.27
2023-04-29T11:21:06.965Z,17.50
2023-04-29T11:23:36.996Z,17.52
2023-04-29T11:26:04.077Z,20.55
2023-04-29T11:28:31.694Z,15.45
2023-04-29T11:30:58.586Z,18.42
2023-04-29T11:33:27.833Z,18.10
2023-04-29T11:35:54.697Z,14.50
2023-04-29T11:38:28.169Z,16.13
2023-04-29T11:40:55.640Z,13.25
2023-04-29T11:43:23.663Z,11.75
2023-04-29T11:45:52.367Z,16.60
2023-04-29T11:48:23.107Z,17.90
2023-04-29T11:50:54.028Z,14.95
2023-04-29T11:53:21.204Z,18.92
2023-04-29T11:55:47.946Z,16.60
2023-04-29T11:58:18.117Z,15.52
2023-04-29T12:00:47.684Z,13.20
2023-04-29T12:03:15.492Z,15.93
2023-04-29T12:05:55.237Z,14.68
2023-04-29T12:08:28.823Z,13.10
2023-04-29T12:10:56.855Z,14.93
2023-04-29T12:13:27.043Z,13.38
2023-04-29T12:15:53.921Z,10.80
2023-04-29T12:18:22.854Z,9.15
2023-04-29T12:20:51.704Z,10.40
2023-04-29T12:23:19.687Z,10.93
2023-04-29T12:25:50.989Z,11.18
2023-04-29T12:28:17.967Z,8.55
2023-04-29T12:30:46.039Z,9.45
2023-04-29T12:33:20.118Z,9.57
2023-04-29T12:35:46.723Z,8.07
2023-04-29T12:38:16.703Z,9.10
2023-04-29T12:40:46.365Z,8.43
2023-04-29T12:43:13.012Z,8.38
2023-04-29T12:45:39.724Z,7.32
2023-04-29T12:48:10.011Z,10.50
2023-04-29T12:50:41.907Z,6.88
2023-04-29T12:53:08.997Z,9.80
2023-04-29T12:55:36.377Z,6.97
2023-04-29T12:58:03.890Z,7.45
2023-04-29T13:00:30.673Z,9.27
2023-04-29T13:02:57.411Z,7.53
2023-04-29T13:05:30.276Z,7.85
2023-04-29T13:07:57.030Z,6.97
2023-04-29T13:10:23.751Z,6.63
2023-04-29T13:12:50.681Z,5.18
2023-04-29T13:15:17.543Z,6.80
2023-04-29T13:17:44.396Z,7.22
2023-04-29T13:20:11.834Z,6.28
2023-04-29T13:22:38.682Z,5.65
2023-04-29T13:25:05.843Z,5.38
2023-04-29T13:27:32.687Z,6.68
2023-04-29T13:29:59.395Z,8.60
2023-04-29T13:32:26.132Z,6.70
2023-04-29T13:34:53.340Z,7.78
2023-04-29T13:37:20.619Z,6.72
2023-04-29T13:39:48.095Z,6.35
2023-04-29T13:42:15.762Z,6.20
2023-04-29T13:44:52.281Z,5.65
2023-04-29T13:47:25.035Z,8.10
2023-04-29T13:55:12.203Z,5.25
2023-04-29T13:58:30.851Z,6.88
2023-04-29T14:01:00.991Z,5.97
2023-04-29T14:03:13.876Z,5.47
2023-04-29T14:05:41.996Z,7.70
2023-04-29T14:08:08.747Z,5.10
2023-04-29T14:10:36.944Z,5.10
2023-04-29T14:13:03.620Z,6.10
2023-04-29T14:15:30.403Z,5.68
2023-04-29T14:17:57.352Z,7.30
2023-04-29T14:20:24.214Z,6.28
2023-04-29T14:22:51.068Z,6.68
2023-04-29T14:25:17.918Z,6.30
2023-04-29T14:27:45.155Z,6.70
2023-04-29T14:30:12.203Z,7.60
2023-04-29T14:32:38.856Z,7.97
2023-04-29T14:35:06.381Z,6.93
2023-04-29T14:37:33.162Z,7.03
2023-04-29T14:40:00.384Z,6.80
2023-04-29T14:42:27.809Z,7.53
2023-04-29T14:44:54.556Z,8.65
2023-04-29T14:47:21.849Z,7.15
2023-04-29T14:49:48.579Z,8.25
2023-04-29T14:52:15.258Z,7.75
2023-04-29T14:54:42.002Z,7.13
2023-04-29T14:57:08.711Z,6.85
2023-04-29T14:59:35.314Z,7.13
2023-04-29T15:02:02.063Z,8.70
2023-04-29T15:04:29.282Z,8.10
2023-04-29T15:06:57.802Z,7.95
2023-04-29T15:09:24.923Z,7.00
2023-04-29T15:11:51.544Z,7.25
2023-04-29T15:14:18.141Z,7.78
2023-04-29T15:16:44.847Z,9.02
2023-04-29T15:19:11.592Z,9.93
2023-04-29T15:21:38.225Z,7.32
2023-04-29T15:24:04.935Z,8.45
2023-04-29T15:26:32.316Z,8.98
2023-04-29T15:28:58.904Z,10.45
2023-04-29T15:31:27.189Z,9.98
2023-04-29T15:33:55.520Z,9.13
2023-04-29T15:36:29.081Z,8.98
2023-04-29T15:38:55.821Z,7.05
2023-04-29T15:41:22.864Z,9.05
2023-04-29T15:43:49.803Z,9.02
2023-04-29T15:46:16.564Z,8.98
2023-04-29T15:48:43.283Z,8.70
2023-04-29T15:51:10.253Z,8.05
2023-04-29T15:53:36.971Z,12.18
2023-04-29T15:56:03.708Z,10.23
2023-04-29T15:58:30.456Z,10.10
2023-04-29T16:00:57.079Z,8.70
2023-04-29T16:03:23.994Z,11.05
2023-04-29T16:05:51.246Z,8.93
2023-04-29T16:08:17.907Z,11.07
2023-04-29T16:10:46.015Z,8.90
2023-04-29T16:13:13.107Z,8.57
2023-04-29T16:15:40.312Z,8.93
2023-04-29T16:18:07.279Z,9.57
2023-04-29T16:20:33.998Z,9.68
2023-04-29T16:23:00.770Z,10.30
2023-04-29T16:25:27.458Z,10.93
2023-04-29T16:27:54.344Z,26.48
2023-04-29T16:30:22.112Z,21.05
2023-04-29T16:32:48.851Z,15.30
2023-04-29T16:35:15.695Z,50.40
2023-04-29T16:37:42.323Z,21.73
2023-04-29T16:40:09.645Z,9.50
2023-04-29T16:42:37.337Z,11.20
2023-04-29T16:45:04.225Z,8.57
2023-04-29T16:47:33.116Z,13.73
2023-04-29T16:49:59.746Z,11.05
2023-04-29T16:52:26.410Z,10.25
2023-04-29T16:54:57.181Z,9.00
2023-04-29T16:57:26.520Z,12.85
2023-04-29T16:59:53.762Z,10.02
2023-04-29T17:02:20.937Z,10.13
2023-04-29T17:04:47.681Z,15.80
2023-04-29T17:07:15.832Z,11.93
2023-04-29T17:09:44.579Z,13.05
2023-04-29T17:12:11.864Z,11.00
2023-04-29T17:14:40.281Z,12.38
2023-04-29T17:17:07.129Z,11.00
2023-04-29T17:19:34.286Z,9.63
2023-04-29T17:22:00.970Z,8.40
2023-04-29T17:24:27.604Z,8.98
2023-04-29T17:26:54.357Z,9.27
2023-04-29T17:29:21.052Z,8.40
2023-04-29T17:31:54.784Z,9.95
2023-04-29T17:34:25.740Z,9.02
2023-04-29T17:36:57.653Z,10.32
2023-04-29T17:39:24.310Z,12.30
2023-04-29T17:41:51.218Z,11.88
2023-04-29T17:44:17.921Z,11.35
2023-04-29T17:46:44.705Z,11.35
2023-04-29T17:49:11.568Z,13.20
2023-04-29T17:51:38.267Z,10.00
2023-04-29T17:54:05.865Z,10.23
2023-04-29T17:56:34.118Z,11.25
2023-04-29T17:59:09.894Z,15.93
2023-04-29T18:01:37.131Z,10.80
2023-04-29T18:04:04.196Z,14.32
2023-04-29T18:06:31.961Z,13.07
2023-04-29T18:08:58.704Z,12.20
2023-04-29T18:11:26.238Z,12.50
2023-04-29T18:13:53.496Z,13.48
2023-04-29T18:16:20.192Z,11.93
2023-04-29T18:18:47.142Z,12.48
2023-04-29T18:21:19.282Z,19.85
2023-04-29T18:23:46.046Z,14.65
2023-04-29T18:26:12.664Z,14.48
2023-04-29T18:28:39.344Z,15.68
2023-04-29T18:31:06.559Z,11.90
2023-04-29T18:33:33.415Z,12.05
2023-04-29T18:36:00.284Z,12.27
2023-04-29T18:38:26.920Z,15.38
2023-04-29T18:40:53.568Z,18.27
2023-04-29T18:43:29.600Z,19.38
2023-04-29T18:45:57.507Z,21.23
2023-04-29T18:48:24.345Z,17.60
2023-04-29T18:50:52.535Z,18.13
2023-04-29T18:53:19.578Z,17.25
2023-04-29T18:55:47.491Z,16.73
2023-04-29T18:58:14.106Z,13.85
2023-04-29T19:00:40.904Z,18.58
2023-04-29T19:03:07.698Z,13.40
2023-04-29T19:05:34.779Z,14.48
2023-04-29T19:08:01.421Z,14.77
2023-04-29T19:10:28.258Z,14.00
2023-04-29T19:12:55.493Z,18.35
2023-04-29T19:15:24.653Z,18.33
2023-04-29T19:17:51.305Z,18.48
2023-04-29T19:20:18.113Z,18.25
2023-04-29T19:22:48.621Z,19.02
2023-04-29T19:25:15.466Z,15.65
2023-04-29T19:27:45.134Z,15.82
2023-04-29T19:30:12.451Z,16.70
2023-04-29T19:32:39.385Z,15.80
2023-04-29T19:35:06.396Z,16.95
2023-04-29T19:37:33.019Z,18.17
2023-04-29T19:39:59.713Z,17.55
2023-04-29T19:42:27.086Z,20.60
2023-04-29T19:44:53.705Z,17.75
2023-04-29T19:47:20.360Z,20.10
2023-04-29T19:49:47.455Z,25.60
2023-04-29T19:52:15.142Z,23.75
2023-04-29T19:54:43.114Z,20.40
2023-04-29T19:57:10.161Z,22.23
2023-04-29T19:59:36.848Z,22.60
2023-04-29T20:02:03.588Z,19.05
2023-04-29T20:04:30.389Z,16.27
2023-04-29T20:06:57.361Z,18.40
2023-04-29T20:09:24.110Z,19.15
2023-04-29T20:11:50.906Z,16.17
2023-04-29T20:14:17.775Z,16.77
2023-04-29T20:16:44.460Z,15.18
2023-04-29T20:19:11.912Z,17.30
2023-04-29T20:21:40.494Z,16.70
2023-04-29T20:24:08.210Z,16.63
2023-04-29T20:26:34.895Z,20.00
2023-04-29T20:29:01.570Z,18.15
2023-04-29T20:31:28.218Z,19.67
2023-04-29T20:33:54.951Z,24.77
2023-04-29T20:36:23.276Z,19.98
2023-04-29T20:38:49.957Z,17.92
2023-04-29T20:41:16.594Z,22.40
2023-04-29T20:43:43.434Z,23.23
2023-04-29T20:46:12.260Z,17.40
2023-04-29T20:48:39.057Z,18.25
2023-04-29T20:51:06.103Z,11.63
2023-04-29T20:53:32.775Z,10.15
2023-04-29T20:55:59.414Z,9.57
2023-04-29T20:58:26.130Z,8.60
2023-04-29T21:00:52.880Z,7.60
2023-04-29T21:03:22.242Z,7.18
2023-04-29T21:05:56.305Z,8.10
2023-04-29T21:08:23.056Z,9.73
2023-04-29T21:10:49.708Z,8.75
2023-04-29T21:13:17.745Z,8.25
2023-04-29T21:15:47.519Z,8.30
2023-04-29T21:18:14.212Z,5.65
2023-04-29T21:20:41.080Z,6.18
2023-04-29T21:23:07.795Z,6.53
2023-04-29T21:25:34.453Z,7.30
2023-04-29T21:28:01.113Z,6.88
2023-04-29T21:30:28.003Z,5.80
2023-04-29T21:32:54.801Z,4.57
2023-04-29T21:35:21.466Z,4.30
2023-04-29T21:37:48.071Z,4.05
2023-04-29T21:40:15.091Z,7.05
2023-04-29T21:42:42.147Z,3.70
2023-04-29T21:45:09.004Z,4.57
2023-04-29T21:47:35.707Z,14.05
2023-04-29T21:50:02.346Z,16.55
2023-04-29T21:52:30.949Z,9.15
2023-04-29T21:54:57.893Z,3.15
2023-04-29T21:57:35.693Z,3.25
2023-04-29T22:00:20.497Z,4.50
2023-04-29T22:02:47.197Z,5.07
2023-04-29T22:05:13.920Z,5.43
2023-04-29T22:07:40.794Z,4.22
2023-04-29T22:10:08.048Z,3.97
2023-04-29T22:12:34.851Z,3.88
2023-04-29T22:15:01.541Z,4.63
2023-04-29T22:17:28.208Z,4.70
2023-04-29T22:19:55.090Z,5.72
2023-04-29T22:22:21.955Z,4.68
2023-04-29T22:24:48.582Z,5.72
2023-04-29T22:27:15.909Z,6.07
2023-04-29T22:29:43.263Z,5.72
2023-04-29T22:32:10.011Z,4.65
2023-04-29T22:34:36.974Z,6.07
2023-04-29T22:37:03.611Z,7.50
2023-04-29T22:39:30.270Z,7.88
2023-04-29T22:41:56.920Z,7.78
2023-04-29T22:44:23.544Z,8.45
2023-04-29T22:46:50.259Z,7.07
2023-04-29T22:49:16.963Z,8.10
2023-04-29T22:51:43.873Z,7.97
2023-04-29T22:54:10.528Z,7.30
2023-04-29T22:56:37.148Z,8.05
2023-04-29T22:59:03.810Z,8.82
2023-04-29T23:01:30.480Z,6.43
2023-04-29T23:03:57.349Z,8.25
2023-04-29T23:06:24.020Z,8.13
2023-04-29T23:08:50.706Z,8.65
2023-04-29T23:11:17.292Z,8.38
2023-04-29T23:13:43.937Z,7.97
2023-04-29T23:16:11.191Z,9.45
2023-04-29T23:18:38.068Z,9.10
2023-04-29T23:21:05.040Z,9.88
2023-04-29T23:23:31.668Z,8.70
2023-04-29T23:25:58.255Z,8.80
2023-04-29T23:28:24.960Z,9.82
2023-04-29T23:30:51.665Z,11.00
2023-04-29T23:33:18.260Z,10.60
2023-04-29T23:35:52.167Z,10.85
2023-04-29T23:38:19.016Z,12.35
2023-04-29T23:40:48.757Z,11.82
2023-04-29T23:43:15.523Z,12.95
2023-04-29T23:45:44.656Z,14.10
2023-04-29T23:48:12.340Z,17.67
2023-04-29T23:50:38.989Z,15.05
2023-04-29T23:53:05.651Z,19.88
2023-04-29T23:55:32.720Z,21.90
2023-04-29T23:57:59.583Z,21.38
